createdAt,value
2023-04-18T00:00:55.441Z,0.00
2023-04-18T00:01:55.510Z,0.00
2023-04-18T00:02:55.757Z,0.00
2023-04-18T00:03:55.687Z,0.00
2023-04-18T00:04:55.580Z,0.00
2023-04-18T00:05:55.569Z,0.00
2023-04-18T00:06:56.526Z,0.00
2023-04-18T00:07:55.611Z,1.52
2023-04-18T00:08:55.686Z,21.39
2023-04-18T00:09:55.677Z,26.52
2023-04-18T00:10:55.725Z,26.68
2023-04-18T00:11:55.735Z,26.40
2023-04-18T00:12:55.763Z,27.44
2023-04-18T00:13:54.788Z,24.97
2023-04-18T00:14:55.830Z,25.00
2023-04-18T00:15:55.860Z,25.00
2023-04-18T00:16:55.954Z,25.00
2023-04-18T00:17:55.958Z,25.21
2023-04-18T00:18:55.955Z,26.53
2023-04-18T00:19:55.990Z,26.11
2023-04-18T00:20:56.018Z,25.41
2023-04-18T00:21:56.049Z,26.14
2023-04-18T00:22:56.070Z,25.74
2023-04-18T00:23:56.111Z,25.60
2023-04-18T00:24:56.157Z,27.33
2023-04-18T00:25:56.181Z,26.52
2023-04-18T00:26:56.234Z,26.44
2023-04-18T00:27:56.242Z,25.08
2023-04-18T00:28:56.268Z,27.41
2023-04-18T00:29:56.315Z,26.93
2023-04-18T00:30:56.377Z,25.35
2023-04-18T00:31:56.359Z,25.80
2023-04-18T00:32:56.447Z,26.30
2023-04-18T00:33:56.420Z,27.66
2023-04-18T00:34:56.449Z,25.00
2023-04-18T00:35:56.461Z,25.83
2023-04-18T00:36:56.498Z,25.87
2023-04-18T00:37:56.523Z,27.15
2023-04-18T00:38:56.556Z,27.14
2023-04-18T00:39:57.294Z,25.48
2023-04-18T00:40:56.613Z,29.25
2023-04-18T00:41:56.648Z,25.00
2023-04-18T00:42:56.700Z,27.89
2023-04-18T00:43:56.709Z,27.45
2023-04-18T00:44:56.746Z,27.03
2023-04-18T00:45:56.808Z,25.41
2023-04-18T00:46:56.814Z,28.21
2023-04-18T00:47:56.884Z,27.11
2023-04-18T00:48:56.886Z,25.62
2023-04-18T00:49:56.918Z,26.90
2023-04-18T00:50:56.960Z,26.30
2023-04-18T00:51:57.014Z,28.64
2023-04-18T00:52:57.030Z,29.29
2023-04-18T00:53:57.109Z,27.33
2023-04-18T00:54:57.097Z,25.00
2023-04-18T00:55:57.124Z,28.09
2023-04-18T00:56:57.145Z,27.62
2023-04-18T00:57:57.176Z,27.00
2023-04-18T00:58:57.231Z,26.60
2023-04-18T00:59:57.256Z,26.26
2023-04-18T01:00:57.273Z,27.00
2023-04-18T01:01:57.363Z,28.03
2023-04-18T01:02:57.401Z,26.85
2023-04-18T01:03:57.502Z,26.02
2023-04-18T01:04:57.421Z,25.38
2023-04-18T01:05:57.494Z,29.38
2023-04-18T01:06:57.836Z,25.76
2023-04-18T01:07:57.516Z,26.54
2023-04-18T01:08:57.547Z,25.50
2023-04-18T01:09:57.583Z,25.81
2023-04-18T01:10:57.607Z,26.51
2023-04-18T01:11:57.649Z,30.81
2023-04-18T01:12:57.677Z,27.04
2023-04-18T01:13:57.700Z,27.71
2023-04-18T01:14:57.756Z,28.53
2023-04-18T01:15:57.795Z,30.74
2023-04-18T01:16:57.796Z,26.32
2023-04-18T01:17:57.864Z,27.71
2023-04-18T01:18:57.867Z,28.43
2023-04-18T01:19:57.908Z,28.98
2023-04-18T01:20:57.931Z,28.38
2023-04-18T01:21:57.974Z,27.79
2023-04-18T01:22:58.004Z,28.23
2023-04-18T01:23:58.032Z,26.76
2023-04-18T01:24:58.081Z,27.01
2023-04-18T01:25:58.103Z,26.53
2023-04-18T01:26:58.153Z,25.07
2023-04-18T01:27:58.185Z,28.65
2023-04-18T01:28:58.230Z,27.85
2023-04-18T01:29:58.240Z,28.18
2023-04-18T01:30:58.343Z,27.21
2023-04-18T01:31:58.305Z,29.60
2023-04-18T01:32:58.371Z,28.64
2023-04-18T01:33:58.367Z,28.16
2023-04-18T01:34:58.418Z,25.88
2023-04-18T01:35:58.444Z,25.86
2023-04-18T01:36:58.478Z,27.05
2023-04-18T01:37:58.526Z,26.67
2023-04-18T01:38:58.548Z,26.19
2023-04-18T01:39:58.584Z,25.01
2023-04-18T01:40:58.638Z,26.55
2023-04-18T01:41:58.650Z,27.11
2023-04-18T01:42:58.679Z,27.65
2023-04-18T01:43:57.716Z,26.83
2023-04-18T01:44:58.752Z,28.32
2023-04-18T01:45:58.793Z,27.43
2023-04-18T01:46:58.930Z,27.18
2023-04-18T01:47:58.876Z,28.01
2023-04-18T01:48:58.876Z,26.46
2023-04-18T01:49:58.961Z,25.88
2023-04-18T01:50:58.961Z,28.06
2023-04-18T01:51:58.979Z,25.50
2023-04-18T01:52:59.008Z,28.95
2023-04-18T01:53:59.065Z,25.81
2023-04-18T01:54:59.080Z,26.85
2023-04-18T01:55:59.108Z,28.68
2023-04-18T01:56:59.138Z,26.21
2023-04-18T01:57:59.175Z,27.71
2023-04-18T01:58:59.204Z,27.99
2023-04-18T01:59:59.240Z,27.54
2023-04-18T02:00:59.324Z,27.58
2023-04-18T02:01:59.441Z,26.85
2023-04-18T02:02:59.571Z,28.54
2023-04-18T02:03:59.409Z,28.49
2023-04-18T02:04:59.406Z,27.27
2023-04-18T02:05:59.442Z,28.95
2023-04-18T02:06:59.469Z,26.09
2023-04-18T02:07:59.493Z,29.48
2023-04-18T02:08:59.519Z,26.66
2023-04-18T02:09:59.584Z,27.77
2023-04-18T02:10:59.582Z,28.42
2023-04-18T02:11:59.655Z,27.99
2023-04-18T02:12:59.647Z,28.45
2023-04-18T02:13:59.738Z,27.18
2023-04-18T02:14:59.710Z,28.02
2023-04-18T02:15:59.819Z,26.42
2023-04-18T02:16:59.774Z,28.82
2023-04-18T02:17:59.824Z,26.27
2023-04-18T02:18:59.855Z,28.80
2023-04-18T02:19:59.862Z,27.70
2023-04-18T02:21:00.783Z,27.71
2023-04-18T02:21:59.919Z,27.81
2023-04-18T02:22:59.954Z,29.97
2023-04-18T02:23:59.979Z,28.10
2023-04-18T02:25:00.018Z,27.90
2023-04-18T02:26:00.057Z,30.46
2023-04-18T02:27:00.113Z,28.22
2023-04-18T02:28:00.138Z,28.06
2023-04-18T02:29:00.149Z,27.84
2023-04-18T02:30:00.216Z,27.54
2023-04-18T02:31:00.361Z,26.72
2023-04-18T02:32:00.351Z,28.45
2023-04-18T02:33:00.316Z,27.40
2023-04-18T02:34:00.303Z,28.02
2023-04-18T02:35:00.392Z,27.04
2023-04-18T02:36:00.377Z,26.33
2023-04-18T02:37:00.440Z,27.11
2023-04-18T02:38:00.447Z,29.81
2023-04-18T02:39:00.473Z,27.46
2023-04-18T02:40:00.509Z,25.84
2023-04-18T02:41:00.556Z,28.79
2023-04-18T02:42:00.572Z,25.00
2023-04-18T02:43:00.609Z,25.17
2023-04-18T02:44:00.643Z,30.49
2023-04-18T02:45:00.679Z,28.90
2023-04-18T02:46:00.800Z,28.29
2023-04-18T02:47:00.756Z,27.76
2023-04-18T02:48:00.804Z,28.90
2023-04-18T02:49:00.813Z,26.76
2023-04-18T02:50:00.851Z,27.47
2023-04-18T02:51:00.978Z,28.70
2023-04-18T02:52:00.927Z,26.71
2023-04-18T02:53:00.954Z,26.24
2023-04-18T02:54:00.986Z,27.85
2023-04-18T02:55:01.013Z,28.95
2023-04-18T02:56:01.066Z,29.43
2023-04-18T02:57:01.073Z,27.62
2023-04-18T02:58:01.118Z,28.00
2023-04-18T02:59:01.151Z,29.11
2023-04-18T03:00:01.180Z,27.41
2023-04-18T03:01:01.223Z,27.70
2023-04-18T03:02:01.321Z,27.99
2023-04-18T03:03:01.587Z,27.35
2023-04-18T03:04:01.317Z,27.34
2023-04-18T03:05:01.409Z,28.29
2023-04-18T03:06:01.374Z,28.24
2023-04-18T03:07:01.467Z,28.01
2023-04-18T03:08:01.451Z,29.87
2023-04-18T03:09:01.483Z,28.45
2023-04-18T03:10:01.572Z,30.87
2023-04-18T03:11:01.548Z,29.66
2023-04-18T03:12:01.574Z,30.07
2023-04-18T03:13:01.615Z,27.54
2023-04-18T03:14:01.654Z,28.23
2023-04-18T03:15:01.681Z,30.52
2023-04-18T03:16:01.752Z,27.34
2023-04-18T03:17:01.759Z,28.54
2023-04-18T03:18:02.070Z,29.06
2023-04-18T03:19:01.830Z,26.93
2023-04-18T03:20:01.893Z,27.67
2023-04-18T03:21:01.968Z,27.24
2023-04-18T03:22:02.039Z,27.10
2023-04-18T03:23:02.009Z,26.33
2023-04-18T03:24:02.016Z,27.52
2023-04-18T03:25:02.059Z,28.33
2023-04-18T03:26:02.120Z,28.38
2023-04-18T03:27:02.125Z,27.83
2023-04-18T03:28:02.152Z,25.32
2023-04-18T03:29:02.199Z,26.26
2023-04-18T03:30:02.210Z,26.39
2023-04-18T03:31:02.298Z,27.09
2023-04-18T03:32:02.271Z,28.84
2023-04-18T03:33:02.304Z,27.26
2023-04-18T03:34:02.330Z,27.04
2023-04-18T03:35:02.359Z,27.29
2023-04-18T03:36:02.376Z,25.99
2023-04-18T03:37:02.393Z,25.65
2023-04-18T03:38:03.243Z,25.82
2023-04-18T03:39:02.479Z,26.98
2023-04-18T03:40:02.492Z,25.98
2023-04-18T03:41:02.487Z,29.08
2023-04-18T03:42:02.506Z,25.97
2023-04-18T03:43:02.562Z,25.18
2023-04-18T03:44:02.543Z,25.41
2023-04-18T03:45:02.552Z,27.10
2023-04-18T03:46:02.604Z,26.35
2023-04-18T03:47:02.587Z,26.02
2023-04-18T03:48:02.621Z,27.81
2023-04-18T03:49:02.748Z,28.96
2023-04-18T03:50:02.636Z,27.12
2023-04-18T03:51:02.717Z,28.17
2023-04-18T03:52:02.643Z,28.23
2023-04-18T03:53:02.653Z,26.04
2023-04-18T03:54:02.667Z,28.50
2023-04-18T03:55:02.715Z,25.95
2023-04-18T03:56:02.682Z,29.17
2023-04-18T03:57:02.699Z,27.26
2023-04-18T03:58:02.726Z,29.40
2023-04-18T03:59:02.745Z,28.40
2023-04-18T04:00:02.720Z,28.70
2023-04-18T04:01:02.734Z,29.09
2023-04-18T04:02:02.790Z,26.04
2023-04-18T04:03:02.913Z,27.40
2023-04-18T04:04:02.852Z,28.61
2023-04-18T04:05:02.834Z,27.53
2023-04-18T04:06:02.737Z,28.76
2023-04-18T04:07:02.744Z,26.02
2023-04-18T04:08:02.746Z,27.72
2023-04-18T04:09:02.756Z,28.39
2023-04-18T04:10:02.789Z,26.41
2023-04-18T04:11:02.905Z,29.09
2023-04-18T04:12:02.778Z,25.88
2023-04-18T04:13:02.786Z,28.15
2023-04-18T04:14:02.792Z,28.66
2023-04-18T04:15:02.792Z,25.91
2023-04-18T04:16:02.833Z,27.75
2023-04-18T04:17:02.808Z,28.22
2023-04-18T04:18:02.873Z,27.83
2023-04-18T04:19:02.826Z,26.56
2023-04-18T04:20:02.824Z,27.59
2023-04-18T04:21:02.836Z,27.94
2023-04-18T04:22:02.829Z,26.09
2023-04-18T04:23:02.845Z,27.76
2023-04-18T04:24:02.834Z,27.60
2023-04-18T04:25:02.840Z,25.99
2023-04-18T04:26:02.845Z,29.25
2023-04-18T04:27:02.872Z,28.26
2023-04-18T04:28:02.893Z,28.87
2023-04-18T04:29:02.860Z,26.90
2023-04-18T04:30:02.865Z,28.72
2023-04-18T04:31:02.878Z,27.62
2023-04-18T04:32:02.912Z,27.28
2023-04-18T04:33:02.953Z,26.52
2023-04-18T04:34:02.854Z,28.63
2023-04-18T04:35:02.870Z,29.24
2023-04-18T04:36:02.857Z,28.08
2023-04-18T04:37:02.850Z,28.24
2023-04-18T04:38:02.850Z,29.20
2023-04-18T04:39:02.846Z,26.98
2023-04-18T04:40:02.887Z,28.15
2023-04-18T04:41:02.849Z,28.29
2023-04-18T04:42:02.844Z,28.89
2023-04-18T04:43:02.939Z,27.15
2023-04-18T04:44:02.837Z,28.88
2023-04-18T04:45:02.878Z,29.09
2023-04-18T04:46:02.917Z,28.34
2023-04-18T04:47:02.841Z,27.69
2023-04-18T04:48:02.894Z,28.87
2023-04-18T04:49:02.837Z,27.69
2023-04-18T04:50:02.833Z,28.70
2023-04-18T04:51:02.834Z,27.90
2023-04-18T04:52:03.052Z,27.69
2023-04-18T04:53:02.860Z,27.88
2023-04-18T04:54:02.828Z,28.45
2023-04-18T04:55:02.828Z,28.77
2023-04-18T04:56:02.826Z,29.59
2023-04-18T04:57:02.813Z,26.48
2023-04-18T04:58:02.809Z,27.79
2023-04-18T04:59:02.883Z,29.04
2023-04-18T05:00:02.809Z,28.84
2023-04-18T05:01:02.834Z,29.77
2023-04-18T05:02:02.923Z,28.25
2023-04-18T05:03:03.060Z,30.53
2023-04-18T05:04:02.975Z,27.69
2023-04-18T05:05:02.820Z,29.35
2023-04-18T05:06:02.795Z,28.49
2023-04-18T05:07:02.786Z,26.26
2023-04-18T05:08:02.798Z,29.03
2023-04-18T05:09:02.774Z,26.11
2023-04-18T05:10:02.781Z,28.06
2023-04-18T05:11:02.770Z,27.69
2023-04-18T05:12:03.278Z,26.01
2023-04-18T05:13:02.776Z,25.33
2023-04-18T05:14:02.782Z,25.65
2023-04-18T05:15:02.829Z,25.43
2023-04-18T05:16:02.813Z,25.46
2023-04-18T05:17:02.921Z,26.44
2023-04-18T05:18:03.407Z,25.21
2023-04-18T05:19:02.819Z,25.00
2023-04-18T05:20:02.848Z,26.65
2023-04-18T05:21:02.852Z,25.00
2023-04-18T05:22:02.843Z,28.43
2023-04-18T05:23:02.881Z,27.71
2023-04-18T05:24:02.867Z,28.36
2023-04-18T05:25:02.885Z,26.23
2023-04-18T05:26:03.292Z,25.38
2023-04-18T05:27:02.873Z,26.79
2023-04-18T05:28:02.871Z,26.83
2023-04-18T05:29:02.884Z,26.94
2023-04-18T05:30:02.904Z,28.84
2023-04-18T05:31:03.455Z,25.00
2023-04-18T05:32:02.908Z,26.24
2023-04-18T05:33:02.956Z,28.54
2023-04-18T05:34:02.933Z,25.16
2023-04-18T05:35:02.927Z,25.07
2023-04-18T05:36:03.288Z,26.96
2023-04-18T05:37:02.932Z,28.52
2023-04-18T05:38:03.300Z,26.08
2023-04-18T05:39:02.940Z,25.79
2023-04-18T05:40:03.333Z,27.40
2023-04-18T05:41:02.955Z,29.74
2023-04-18T05:42:02.965Z,30.51
2023-04-18T05:43:03.534Z,26.24
2023-04-18T05:44:05.781Z,26.45
2023-04-18T05:45:02.986Z,26.62
2023-04-18T05:46:02.989Z,26.73
2023-04-18T05:47:02.961Z,27.07
2023-04-18T05:48:04.041Z,26.23
2023-04-18T05:49:03.309Z,31.91
2023-04-18T05:50:03.302Z,30.94
2023-04-18T05:51:02.892Z,30.78
2023-04-18T05:52:02.888Z,32.25
2023-04-18T05:53:02.860Z,35.27
2023-04-18T05:54:03.331Z,39.89
2023-04-18T05:55:03.373Z,46.13
2023-04-18T05:56:03.429Z,53.47
2023-04-18T05:57:04.374Z,57.26
2023-04-18T05:58:02.795Z,66.98
2023-04-18T05:59:05.963Z,78.58
2023-04-18T06:00:02.823Z,79.17
2023-04-18T06:01:02.709Z,81.72
2023-04-18T06:02:02.697Z,85.63
2023-04-18T06:03:02.998Z,94.82
2023-04-18T06:04:02.869Z,110.42
2023-04-18T06:05:02.767Z,112.24
2023-04-18T06:06:02.745Z,114.35
2023-04-18T06:07:02.555Z,116.01
2023-04-18T06:08:03.849Z,121.85
2023-04-18T06:09:02.512Z,127.96
2023-04-18T06:10:02.804Z,132.96
2023-04-18T06:11:02.482Z,131.37
2023-04-18T06:12:02.449Z,136.06
2023-04-18T06:13:02.821Z,138.11
2023-04-18T06:14:03.112Z,141.33
2023-04-18T06:15:03.336Z,142.64
2023-04-18T06:16:03.047Z,142.29
2023-04-18T06:17:02.848Z,144.10
2023-04-18T06:18:03.154Z,148.37
2023-04-18T06:19:03.200Z,144.91
2023-04-18T06:20:03.377Z,144.66
2023-04-18T06:21:03.230Z,141.87
2023-04-18T06:22:03.313Z,138.55
2023-04-18T06:23:03.340Z,140.12
2023-04-18T06:24:03.317Z,140.27
2023-04-18T06:25:03.415Z,139.25
2023-04-18T06:26:03.818Z,138.86
2023-04-18T06:27:03.205Z,136.99
2023-04-18T06:28:03.158Z,137.18
2023-04-18T06:29:03.289Z,139.07
2023-04-18T06:30:03.571Z,137.88
2023-04-18T06:31:03.407Z,142.20
2023-04-18T06:32:03.671Z,144.36
2023-04-18T06:33:03.644Z,144.83
2023-04-18T06:34:03.685Z,145.83
2023-04-18T06:35:03.345Z,145.04
2023-04-18T06:36:03.261Z,147.57
2023-04-18T06:37:03.309Z,145.35
2023-04-18T06:38:03.312Z,143.69
2023-04-18T06:39:03.893Z,145.64
2023-04-18T06:40:03.389Z,143.77
2023-04-18T06:41:03.442Z,148.46
2023-04-18T06:42:03.473Z,184.37
2023-04-18T06:43:03.488Z,184.63
2023-04-18T06:44:04.701Z,183.53
2023-04-18T06:45:03.571Z,180.93
2023-04-18T06:46:03.651Z,176.08
2023-04-18T06:47:03.836Z,169.39
2023-04-18T06:48:03.890Z,166.97
2023-04-18T06:49:03.714Z,161.80
2023-04-18T06:50:03.824Z,157.57
2023-04-18T06:51:03.850Z,153.24
2023-04-18T06:52:03.797Z,149.25
2023-04-18T06:53:03.832Z,149.25
2023-04-18T06:54:03.850Z,146.66
2023-04-18T06:55:04.326Z,139.04
2023-04-18T06:56:03.896Z,138.26
2023-04-18T06:57:03.918Z,132.39
2023-04-18T06:58:03.965Z,133.54
2023-04-18T06:59:04.319Z,131.59
2023-04-18T07:00:04.007Z,130.19
2023-04-18T07:01:04.364Z,131.02
2023-04-18T07:02:04.081Z,131.88
2023-04-18T07:03:04.327Z,128.13
2023-04-18T07:04:04.394Z,124.71
2023-04-18T07:05:04.057Z,121.05
2023-04-18T07:06:04.864Z,115.88
2023-04-18T07:07:04.116Z,114.91
2023-04-18T07:08:04.050Z,111.27
2023-04-18T07:09:04.047Z,115.85
2023-04-18T07:10:04.041Z,115.99
2023-04-18T07:11:04.033Z,120.19
2023-04-18T07:12:05.013Z,118.37
2023-04-18T07:13:04.013Z,115.78
2023-04-18T07:14:04.323Z,119.32
2023-04-18T07:15:04.017Z,115.61
2023-04-18T07:16:03.988Z,113.45
2023-04-18T07:17:04.031Z,111.56
2023-04-18T07:18:04.043Z,110.18
2023-04-18T07:19:03.975Z,111.84
2023-04-18T07:20:03.959Z,108.81
2023-04-18T07:21:03.969Z,111.44
2023-04-18T07:22:03.944Z,110.53
2023-04-18T07:23:04.164Z,109.89
2023-04-18T07:24:04.336Z,110.23
2023-04-18T07:25:03.896Z,109.44
2023-04-18T07:26:03.888Z,111.38
2023-04-18T07:27:03.902Z,110.10
2023-04-18T07:28:04.365Z,111.57
2023-04-18T07:29:04.336Z,111.89
2023-04-18T07:30:03.825Z,112.51
2023-04-18T07:31:03.885Z,107.47
2023-04-18T07:32:04.481Z,103.73
2023-04-18T07:33:03.924Z,104.51
2023-04-18T07:34:03.936Z,106.37
2023-04-18T07:35:03.749Z,105.78
2023-04-18T07:36:03.733Z,103.07
2023-04-18T07:37:03.727Z,102.38
2023-04-18T07:38:03.694Z,98.90
2023-04-18T07:39:04.231Z,100.84
2023-04-18T07:40:03.741Z,94.08
2023-04-18T07:41:03.652Z,95.34
2023-04-18T07:42:03.649Z,96.47
2023-04-18T07:43:03.601Z,90.99
2023-04-18T07:44:03.843Z,88.31
2023-04-18T07:45:03.579Z,89.18
2023-04-18T07:46:03.588Z,85.88
2023-04-18T07:47:03.555Z,83.71
2023-04-18T07:48:03.610Z,92.49
2023-04-18T07:49:03.852Z,82.72
2023-04-18T07:50:03.534Z,90.70
2023-04-18T07:51:03.880Z,93.17
2023-04-18T07:52:03.517Z,91.08
2023-04-18T07:53:03.514Z,77.03
2023-04-18T07:54:03.893Z,72.88
2023-04-18T07:55:03.649Z,75.85
2023-04-18T07:56:03.838Z,81.20
2023-04-18T07:57:03.492Z,78.41
2023-04-18T07:58:03.492Z,70.88
2023-04-18T07:59:03.479Z,72.28
2023-04-18T08:00:03.492Z,65.80
2023-04-18T08:01:02.845Z,63.10
2023-04-18T08:02:03.471Z,66.07
2023-04-18T08:03:03.638Z,61.92
2023-04-18T08:04:03.462Z,60.01
2023-04-18T08:05:03.553Z,57.69
2023-04-18T08:06:03.378Z,53.11
2023-04-18T08:07:03.262Z,51.12
2023-04-18T08:08:03.221Z,51.15
2023-04-18T08:09:03.393Z,49.13
2023-04-18T08:10:03.152Z,51.96
2023-04-18T08:11:03.176Z,43.17
2023-04-18T08:12:03.166Z,40.58
2023-04-18T08:13:03.066Z,44.03
2023-04-18T08:14:03.361Z,44.17
2023-04-18T08:15:03.024Z,42.30
2023-04-18T08:16:03.434Z,39.23
2023-04-18T08:17:03.462Z,34.35
2023-04-18T08:18:02.949Z,33.19
2023-04-18T08:19:02.894Z,33.74
2023-04-18T08:20:03.352Z,30.93
2023-04-18T08:21:02.856Z,34.06
2023-04-18T08:22:02.796Z,30.19
2023-04-18T08:23:08.499Z,32.93
2023-04-18T08:24:02.750Z,33.26
2023-04-18T08:25:05.153Z,33.23
2023-04-18T08:26:02.852Z,33.07
2023-04-18T08:27:03.126Z,28.54
2023-04-18T08:28:02.674Z,30.52
2023-04-18T08:29:02.588Z,27.25
2023-04-18T08:30:03.315Z,21.81
2023-04-18T08:31:02.531Z,27.15
2023-04-18T08:32:02.591Z,38.13
2023-04-18T08:33:02.531Z,42.60
2023-04-18T08:34:04.429Z,42.84
2023-04-18T08:35:02.979Z,46.88
2023-04-18T08:36:02.373Z,53.91
2023-04-18T08:37:02.420Z,55.15
2023-04-18T08:38:02.313Z,51.04
2023-04-18T08:39:02.460Z,53.22
2023-04-18T08:40:02.368Z,54.24
2023-04-18T08:41:02.200Z,59.14
2023-04-18T08:42:02.168Z,53.63
2023-04-18T08:43:02.168Z,50.47
2023-04-18T08:44:02.424Z,43.06
2023-04-18T08:45:02.364Z,52.06
2023-04-18T08:46:02.205Z,50.37
2023-04-18T08:47:02.073Z,48.50
2023-04-18T08:48:02.017Z,51.63
2023-04-18T08:49:01.942Z,54.66
2023-04-18T08:50:02.414Z,62.54
2023-04-18T08:51:01.851Z,65.20
2023-04-18T08:52:01.812Z,58.76
2023-04-18T08:53:01.850Z,58.16
2023-04-18T08:54:01.885Z,58.52
2023-04-18T08:55:01.798Z,60.34
2023-04-18T08:56:01.726Z,58.54
2023-04-18T08:57:01.627Z,56.40
2023-04-18T08:58:01.604Z,54.58
2023-04-18T08:59:02.038Z,58.31
2023-04-18T09:00:01.529Z,56.02
2023-04-18T09:01:01.559Z,59.23
2023-04-18T09:02:01.592Z,68.97
2023-04-18T09:03:01.991Z,82.43
2023-04-18T09:04:01.509Z,99.38
2023-04-18T09:05:01.327Z,118.97
2023-04-18T09:06:01.299Z,128.40
2023-04-18T09:07:01.268Z,130.92
2023-04-18T09:08:01.366Z,133.89
2023-04-18T09:09:01.188Z,136.14
2023-04-18T09:10:01.157Z,134.06
2023-04-18T09:11:01.128Z,131.27
2023-04-18T09:12:01.124Z,124.81
2023-04-18T09:13:01.367Z,122.06
2023-04-18T09:14:01.147Z,131.50
2023-04-18T09:15:01.318Z,130.60
2023-04-18T09:16:01.179Z,134.92
2023-04-18T09:17:01.258Z,134.04
2023-04-18T09:18:01.392Z,122.19
2023-04-18T09:19:01.224Z,119.59
2023-04-18T09:20:01.243Z,120.74
2023-04-18T09:21:01.398Z,123.70
2023-04-18T09:22:01.372Z,129.32
2023-04-18T09:23:01.279Z,128.99
2023-04-18T09:24:01.315Z,127.68
2023-04-18T09:25:01.438Z,123.80
2023-04-18T09:26:01.456Z,124.06
2023-04-18T09:27:01.386Z,123.24
2023-04-18T09:28:01.985Z,124.14
2023-04-18T09:29:01.431Z,110.06
2023-04-18T09:30:01.439Z,96.22
2023-04-18T09:31:01.522Z,89.94
2023-04-18T09:32:01.903Z,93.20
2023-04-18T09:33:03.158Z,83.80
2023-04-18T09:34:01.687Z,58.82
2023-04-18T09:35:03.957Z,36.28
2023-04-18T09:36:01.937Z,24.43
2023-04-18T09:37:01.731Z,24.43
2023-04-18T09:38:01.652Z,23.43
2023-04-18T09:39:01.633Z,25.00
2023-04-18T09:40:01.605Z,25.07
2023-04-18T09:41:01.900Z,25.16
2023-04-18T09:42:01.601Z,25.00
2023-04-18T09:43:01.548Z,28.24
2023-04-18T09:44:01.529Z,31.25
2023-04-18T09:45:01.521Z,27.15
2023-04-18T09:46:02.038Z,25.00
2023-04-18T09:47:01.985Z,25.00
2023-04-18T09:48:01.491Z,26.96
2023-04-18T09:49:01.462Z,25.00
2023-04-18T09:50:01.379Z,19.44
2023-04-18T09:51:01.475Z,34.92
2023-04-18T09:52:01.396Z,47.95
2023-04-18T09:53:01.310Z,65.80
2023-04-18T09:54:01.299Z,93.65
2023-04-18T09:55:01.235Z,94.32
2023-04-18T09:56:01.389Z,110.56
2023-04-18T09:57:01.218Z,99.86
2023-04-18T09:58:01.170Z,118.94
2023-04-18T09:59:01.142Z,93.98
2023-04-18T10:00:01.112Z,71.75
2023-04-18T10:01:01.390Z,80.10
2023-04-18T10:02:01.165Z,72.67
2023-04-18T10:03:01.284Z,73.33
2023-04-18T10:04:01.269Z,67.42
2023-04-18T10:05:01.085Z,83.08
2023-04-18T10:06:01.398Z,96.64
2023-04-18T10:07:00.960Z,102.71
2023-04-18T10:08:01.049Z,107.94
2023-04-18T10:09:00.894Z,121.07
2023-04-18T10:10:00.873Z,120.79
2023-04-18T10:11:00.939Z,119.55
2023-04-18T10:12:00.836Z,110.95
2023-04-18T10:13:00.814Z,74.58
2023-04-18T10:14:00.765Z,91.34
2023-04-18T10:15:00.886Z,85.76
2023-04-18T10:16:00.803Z,72.49
2023-04-18T10:17:00.911Z,82.81
2023-04-18T10:18:05.042Z,79.06
2023-04-18T10:19:00.840Z,80.08
2023-04-18T10:20:00.664Z,83.14
2023-04-18T10:21:00.653Z,89.27
2023-04-18T10:22:00.628Z,104.91
2023-04-18T10:23:00.925Z,102.27
2023-04-18T10:24:00.579Z,125.24
2023-04-18T10:25:00.902Z,118.66
2023-04-18T10:26:00.512Z,119.01
2023-04-18T10:27:01.073Z,142.90
2023-04-18T10:28:00.485Z,153.91
2023-04-18T10:29:00.903Z,146.94
2023-04-18T10:30:00.441Z,130.78
2023-04-18T10:31:00.438Z,106.21
2023-04-18T10:32:00.507Z,83.27
2023-04-18T10:33:00.405Z,54.66
2023-04-18T10:34:04.759Z,30.25
2023-04-18T10:35:00.520Z,1.26
2023-04-18T10:36:00.336Z,0.00
2023-04-18T10:37:00.429Z,0.00
2023-04-18T10:38:00.356Z,0.00
2023-04-18T10:39:00.342Z,0.00
2023-04-18T10:40:02.022Z,0.00
2023-04-18T10:41:00.809Z,0.00
2023-04-18T10:42:00.897Z,0.00
2023-04-18T10:43:00.906Z,0.00
2023-04-18T10:44:00.696Z,9.25
2023-04-18T10:45:00.745Z,28.49
2023-04-18T10:46:00.775Z,34.85
2023-04-18T10:47:00.834Z,31.76
2023-04-18T10:48:01.453Z,25.00
2023-04-18T10:49:00.855Z,29.87
2023-04-18T10:50:01.068Z,24.18
2023-04-18T10:51:01.039Z,25.00
2023-04-18T10:52:01.503Z,24.91
2023-04-18T10:53:00.940Z,25.51
2023-04-18T10:54:00.933Z,25.00
2023-04-18T10:55:00.941Z,27.05
2023-04-18T10:56:01.437Z,25.00
2023-04-18T10:57:01.277Z,25.00
2023-04-18T10:58:01.436Z,49.10
2023-04-18T10:59:00.988Z,30.03
2023-04-18T11:00:01.001Z,25.17
2023-04-18T11:01:01.454Z,30.88
2023-04-18T11:02:01.055Z,27.48
2023-04-18T11:03:01.185Z,39.69
2023-04-18T11:04:01.677Z,56.47
2023-04-18T11:05:01.076Z,64.04
2023-04-18T11:06:02.499Z,57.96
2023-04-18T11:07:01.088Z,52.29
2023-04-18T11:08:01.475Z,49.41
2023-04-18T11:09:01.028Z,53.45
2023-04-18T11:10:00.426Z,53.68
2023-04-18T11:11:01.445Z,53.49
2023-04-18T11:12:00.959Z,53.65
2023-04-18T11:13:00.959Z,54.63
2023-04-18T11:14:00.932Z,57.30
2023-04-18T11:15:00.915Z,76.31
2023-04-18T11:16:00.992Z,97.17
2023-04-18T11:17:02.004Z,103.61
2023-04-18T11:18:00.953Z,112.48
2023-04-18T11:19:00.843Z,119.56
2023-04-18T11:20:00.919Z,129.97
2023-04-18T11:21:00.810Z,142.90
2023-04-18T11:22:00.797Z,149.57
2023-04-18T11:23:00.818Z,158.26
2023-04-18T11:24:00.784Z,136.65
2023-04-18T11:25:00.755Z,134.80
2023-04-18T11:26:00.745Z,135.05
2023-04-18T11:27:00.922Z,142.85
2023-04-18T11:28:00.862Z,147.11
2023-04-18T11:29:00.732Z,140.24
2023-04-18T11:30:00.740Z,133.81
2023-04-18T11:31:00.842Z,138.09
2023-04-18T11:32:00.981Z,144.59
2023-04-18T11:33:00.960Z,138.41
2023-04-18T11:34:01.003Z,131.76
2023-04-18T11:35:00.789Z,126.22
2023-04-18T11:36:00.818Z,145.63
2023-04-18T11:37:00.895Z,145.43
2023-04-18T11:38:00.926Z,171.63
2023-04-18T11:39:00.957Z,171.65
2023-04-18T11:40:00.874Z,151.96
2023-04-18T11:41:00.864Z,158.90
2023-04-18T11:42:00.926Z,147.79
2023-04-18T11:43:00.924Z,135.29
2023-04-18T11:44:00.913Z,115.56
2023-04-18T11:45:00.945Z,111.39
2023-04-18T11:46:01.100Z,122.16
2023-04-18T11:47:01.522Z,110.70
2023-04-18T11:48:01.068Z,118.39
2023-04-18T11:49:01.029Z,131.31
2023-04-18T11:50:01.069Z,114.05
2023-04-18T11:51:01.110Z,124.75
2023-04-18T11:52:01.110Z,113.44
2023-04-18T11:53:01.131Z,98.01
2023-04-18T11:54:01.158Z,104.86
2023-04-18T11:55:01.282Z,108.03
2023-04-18T11:56:01.206Z,120.03
2023-04-18T11:57:01.448Z,126.33
2023-04-18T11:58:01.262Z,208.09
2023-04-18T11:59:01.299Z,270.64
2023-04-18T12:00:01.342Z,272.38
2023-04-18T12:01:01.328Z,249.97
2023-04-18T12:02:12.521Z,236.03
2023-04-18T12:03:01.542Z,236.29
2023-04-18T12:04:01.561Z,237.21
2023-04-18T12:05:01.668Z,267.94
2023-04-18T12:06:01.526Z,285.31
2023-04-18T12:07:01.435Z,324.79
2023-04-18T12:08:01.229Z,302.62
2023-04-18T12:09:01.268Z,295.66
2023-04-18T12:10:01.193Z,264.03
2023-04-18T12:11:01.647Z,247.28
2023-04-18T12:12:01.606Z,252.76
2023-04-18T12:13:01.459Z,250.17
2023-04-18T12:14:02.991Z,245.41
2023-04-18T12:15:01.378Z,244.10
2023-04-18T12:16:01.509Z,238.38
2023-04-18T12:17:01.760Z,231.73
2023-04-18T12:18:01.571Z,228.90
2023-04-18T12:19:02.246Z,226.71
2023-04-18T12:20:01.891Z,223.91
2023-04-18T12:21:01.328Z,221.86
2023-04-18T12:22:01.412Z,216.25
2023-04-18T12:23:02.206Z,215.40
2023-04-18T12:24:02.976Z,213.32
2023-04-18T12:25:01.578Z,211.92
2023-04-18T12:26:01.762Z,211.50
2023-04-18T12:27:01.988Z,209.25
2023-04-18T12:28:01.639Z,205.00
2023-04-18T12:29:02.014Z,202.44
2023-04-18T12:30:01.840Z,202.40
2023-04-18T12:31:01.722Z,202.78
2023-04-18T12:32:02.560Z,200.48
2023-04-18T12:33:02.312Z,197.64
2023-04-18T12:34:01.641Z,191.82
2023-04-18T12:35:01.827Z,189.82
2023-04-18T12:36:01.659Z,190.53
2023-04-18T12:37:01.958Z,186.79
2023-04-18T12:38:02.484Z,184.75
2023-04-18T12:39:02.025Z,182.72
2023-04-18T12:40:01.758Z,182.12
2023-04-18T12:41:01.990Z,178.47
2023-04-18T12:42:04.990Z,178.81
2023-04-18T12:43:03.561Z,178.92
2023-04-18T12:44:01.778Z,178.87
2023-04-18T12:45:01.698Z,178.87
2023-04-18T12:46:01.962Z,175.60